Tiempo atmosférico en la estación meteorológica de Taramundi, Ouria, Asturias (335 m.)



Fecha
DESCASC
Temp. máxima en grados centígrados (hora)
DESCASC
Temp. mínima en grados centígrados (hora)
DESCASC
Temp. media en grados centígrados
DESCASC
Racha de viento máxima en m/sg (hora)
DESCASC
Velocidad máxima media en intervalos de 10 minutos(hora)
DESCASC
Precipitaciones diarias en mm
DESCASC
Precipitaciones de 00:00 a 06:00 en mm
DESCASC
Precipitaciones de 06:00 a 12:00 en mm
DESCASC
Precipitaciones de 12:00 a 18:00 en mm
DESCASC
Precipitaciones de 18:00 a 24:00 en mm
DESCASC
17-09-2020 24.3 (16:00) 16.9 (23:59) 20.6 7.78 (21:20) 4.72 (21:40) 2.6 0 0 0 2.6
16-09-2020 24.1 (14:40) 14.1 (07:10) 19.1 6.11 (16:00) 4.72 (16:00) 0 0 0 0 0
15-09-2020 23 (16:50) 15.7 (08:40) 19.3 6.39 (18:20) 5 (17:10) 0 0 0 0 0
14-09-2020 22.1 (00:00) 17.4 (00:00) 19.8 5.83 (05:10) 3.89 (21:30) 0.4 0 0 0 0.4
13-09-2020 29.8 (15:50) 14.8 (00:00) 22.3 5 (07:40) 3.61 (07:40) 0 0 0 0 0
12-09-2020 20.8 (14:50) 16.5 (00:00) 18.6 4.72 (15:10) 3.61 (15:30) 0.4 0.2 0 0.2 0
11-09-2020 21 (14:50) 15.6 (00:00) 18.3 6.11 (15:30) 5 (15:40) 0.4 0 0 0 0.4
10-09-2020 21.4 (14:40) 13 (00:00) 17.2 8.06 (16:50) 6.11 (16:50) 0 0 0 0 0
09-09-2020 21.1 (15:10) 12 (00:00) 16.6 7.22 (15:30) 5.83 (15:40) 0 0 0 0 0
08-09-2020 21.6 (17:00) 9.9 (00:00) 15.8 8.89 (15:10) 6.67 (15:00) 0 0 0 0 0
07-09-2020 19.3 (13:00) 11.8 (07:00) 15.5 15.28 (14:50) 10 (14:50) 0 0 0 0 0
06-09-2020 16.9 (17:50) 13.6 (00:00) 15.3 12.78 (17:40) 8.89 (15:40) 0.8 0.8 0 0 0
05-09-2020 18.2 (00:00) 14.5 (00:00) 16.4 13.89 (22:30) 8.33 (21:50) 3.4 1 0.6 0.2 1.6
04-09-2020 25.5 (14:10) 14.8 (00:00) 20.2 7.22 (18:30) 6.11 (18:30) 0 0 0 0 0
03-09-2020 23.4 (14:40) 13.1 (00:00) 18.3 5 (17:50) 3.61 (15:00) 0 0 0 0 0
02-09-2020 20.5 (16:40) 12.9 (00:00) 16.7 8.33 (16:00) 6.39 (15:20) 0 0 0 0 0
01-09-2020 19.9 (14:20) 12.3 (00:00) 16.1 9.72 (15:20) 7.22 (16:20) 0 0 0 0 0
31-08-2020 20.3 (15:20) 8.9 (00:00) 14.6 5.28 (18:00) 3.61 (17:20) 0 0 0 0 0
30-08-2020 16.7 (17:50) 10.1 (00:00) 13.4 10.83 (12:10) 6.67 (12:10) 8.8 2.8 1.6 4.4 0
29-08-2020 17.1 (15:20) 11.8 (00:00) 14.5 11.11 (14:20) 7.78 (17:10) 23.6 7.8 11 1.6 3.2
28-08-2020 19.3 (13:10) 13.1 (00:00) 16.2 7.22 (15:30) 5 (14:50) 0.8 0 0.2 0 0.6
27-08-2020 26.3 (18:20) 17.1 (00:00) 21.7 11.11 (14:40) 7.22 (14:40) 3.2 0 0 0 3.2
26-08-2020 23.1 (12:30) 18.3 (00:00) 20.7 5.28 (13:30) 4.44 (13:30) 0.4 0.2 0.2 0 0
25-08-2020 28 (17:20) 15.2 (00:00) 21.6 10.28 (12:00) 6.39 (07:20) 0 0 0 0 0
24-08-2020 22.8 (15:30) 13.2 (00:00) 18 6.11 (16:00) 4.72 (16:00) 0 0 0 0 0
23-08-2020 20.7 (14:00) 12.4 (00:00) 16.6 8.06 (16:50) 6.11 (16:50) 0 0 0 0 0
22-08-2020 23 (15:10) 12.5 (00:00) 17.8 8.89 (17:50) 7.22 (17:50) 0 0 0 0 0
21-08-2020 21.9 (18:20) 16.2 (00:00) 19.1 15.83 (07:30) 9.17 (07:30) 0.4 0 0 0.4 0

Gráficas

Temp. máximas Temp. mínimas Temp. medias Precipitaciones Rachas de viento máximas Velocidades máximas media en intervalos de 10 minutos

Datos horarios

Fecha y hora oficial Temperatura (ºC) Velocidad del viento (km/h) Dirección del viento Racha (km/h) Dirección de racha Precipitación (mm) Presión (hPa) Tendencia (hPa) Humedad (%)
2020-09-19 23:00:00 15.9 0 Calma 6 Sur 0 -- -- 100
2020-09-19 22:00:00 16.1 2 Noroeste 4 Nordeste 0 -- -- 99
2020-09-19 21:00:00 16.5 3 Norte 10 Norte 0 -- -- 99
2020-09-19 20:00:00 17 6 Noroeste 9 Norte 0 -- -- 97
2020-09-19 19:00:00 17.5 4 Sur 7 Norte 0.4 -- -- 96
2020-09-19 18:00:00 17.3 7 Norte 9 Norte 1 -- -- 95
2020-09-19 17:00:00 17.5 4 Norte 22 Norte 0.2 -- -- 91
2020-09-19 16:00:00 19.2 14 Norte 23 Norte 0 -- -- 86
2020-09-19 15:00:00 22.2 7 Norte 23 Sudeste 0 -- -- 72
2020-09-19 14:00:00 21.2 19 Sur 30 Sur 0 -- -- 74
2020-09-19 13:00:00 20.5 20 Sur 32 Sur 0 -- -- 75
2020-09-19 12:00:00 18.6 14 Sur 22 Sudoeste 0 -- -- 86
2020-09-19 11:00:00 16.6 13 Sur 24 Sur 0 -- -- 98
2020-09-19 10:00:00 14.9 9 Sur 16 Sur 0 -- -- 100
2020-09-19 09:00:00 14.5 6 Sur 13 Sur 0 -- -- 100
2020-09-19 08:00:00 14.4 7 Sudoeste 13 Sur 0.2 -- -- 100
2020-09-19 07:00:00 14.3 10 Sur 19 Sur 0 -- -- 100
2020-09-19 06:00:00 14.3 9 Sur 13 Sur 0 -- -- 100
2020-09-19 05:00:00 14.3 8 Sur 17 Sur 0 -- -- 100
2020-09-19 04:00:00 14.2 7 Sur 10 Sur 0 -- -- 100
2020-09-19 03:00:00 14.3 5 Sur 13 Sur 0 -- -- 100
2020-09-19 02:00:00 14.5 6 Sur 15 Sur 0 -- -- 100
2020-09-19 01:00:00 14.4 11 Sur 15 Sur 0 -- -- 100
2020-09-19 00:00:00 14.6 3 Sur 8 Sur 0 -- -- 100
2020-09-18 23:00:00 15 2 Sur 6 Sur 0 -- -- 99
2020-09-18 22:00:00 15.4 2 Sur 9 Nordeste 0 -- -- 99
2020-09-18 21:00:00 15.8 4 Norte 15 Norte 0.2 -- -- 96
2020-09-18 20:00:00 16.7 12 Norte 22 Norte 0 -- -- 93
2020-09-18 19:00:00 17.5 19 Norte 23 Norte 0 -- -- 86
2020-09-18 18:00:00 18 13 Norte 22 Noroeste 0 -- -- 87
2020-09-18 17:00:00 19 18 Norte 26 Norte 0 -- -- 85
2020-09-18 16:00:00 19.1 19 Norte 27 Norte 0 -- -- 84
2020-09-18 15:00:00 19.5 13 Norte 19 Norte 0 -- -- 83
2020-09-18 14:00:00 18.9 14 Norte 22 Norte 0 -- -- 86
2020-09-18 13:00:00 21.8 5 Sudoeste 19 Sur 0 -- -- 74
2020-09-18 12:00:00 21.1 7 Sudeste 17 Sur 0 -- -- 79
2020-09-18 11:00:00 18.3 7 Sur 13 Sur 0 -- -- 96
2020-09-18 10:00:00 15.7 5 Sur 10 Sur 0 -- -- 100
2020-09-18 09:00:00 14.5 4 Sur 10 Sudoeste 0 -- -- 100
2020-09-18 08:00:00 14.6 4 Sur 12 Sur 0 -- -- 100
2020-09-18 07:00:00 14.8 6 Sur 9 Sur 0 -- -- 100
2020-09-18 06:00:00 15 9 Sur 14 Sur 0 -- -- 100
2020-09-18 05:00:00 14.8 7 Sur 13 Sur 0 -- -- 100
2020-09-18 04:00:00 15.1 4 Sur 14 Norte 0.2 -- -- 99
2020-09-18 03:00:00 15.8 9 Norte 19 Sudoeste 2.4 -- -- 99
2020-09-18 02:00:00 16 5 Sur 16 Sur 0 -- -- 99
2020-09-18 01:00:00 16.3 9 Sur 18 Sudoeste 1.2 -- -- 98
2020-09-18 00:00:00 16.9 0 Calma 20 Sur 2 -- -- 95
2020-09-17 23:00:00 17.9 3 Sur 26 Sudoeste 0 -- -- 90
2020-09-17 22:00:00 19.7 10 Sur 28 Sur 0.6 -- -- 91
2020-09-17 21:00:00 19.9 9 Sur 11 Sur 0 -- -- 94
2020-09-17 20:00:00 20.5 2 Sur 9 Sur 0 -- -- 91
2020-09-17 19:00:00 21.9 3 Sudoeste 9 Norte 0 -- -- 88
2020-09-17 18:00:00 22.2 5 Norte 13 Sur 0 -- -- 86
2020-09-17 17:00:00 23.1 6 Norte 15 Norte 0 -- -- 85
2020-09-17 16:00:00 24.3 6 Norte 17 Norte 0 -- -- 81
2020-09-17 15:00:00 22.9 11 Norte 15 Norte 0 -- -- 80
2020-09-17 14:00:00 21.8 3 Norte 12 Sur 0 -- -- 93
2020-09-17 13:00:00 19.3 9 Sur 11 Sur 0 -- -- 100
2020-09-17 12:00:00 18.4 4 Sur 11 Sur 0 -- -- 100
2020-09-17 11:00:00 17.8 3 Oeste 15 Sur 0 -- -- 100
2020-09-17 10:00:00 17.4 5 Este 11 Norte 0 -- -- 100
2020-09-17 09:00:00 17.2 2 Sudoeste 8 Sur 0 -- -- 100
2020-09-17 08:00:00 17.5 6 Sur 10 Sur 0 -- -- 100
2020-09-17 07:00:00 17.6 0 Calma 3 Norte 0 -- -- 100
2020-09-17 06:00:00 17.6 0 Calma 10 Sudeste 0 -- -- 100
2020-09-17 05:00:00 17.4 7 Sur 18 Sur 0 -- -- 100
2020-09-17 04:00:00 17.6 6 Sur 10 Sur 0 -- -- 100
2020-09-17 03:00:00 17.7 3 Sur 6 Sur 0 -- -- 100
2020-09-17 02:00:00 17.8 4 Norte 12 Norte 0 -- -- 100
2020-09-17 01:00:00 17.8 8 Norte 9 Norte 0 -- -- 100
2020-09-17 00:00:00 17.9 4 Norte 13 Noroeste 0 -- -- 100
2020-09-16 23:00:00 17.9 10 Norte 15 Norte 0 -- -- 100
2020-09-16 22:00:00 18.1 5 Norte 9 Norte 0 -- -- 100
2020-09-16 21:00:00 18.4 3 Norte 5 Norte 0 -- -- 99
2020-09-16 20:00:00 18.6 4 Norte 11 Norte 0 -- -- 97
2020-09-16 19:00:00 19.1 6 Norte 15 Norte 0 -- -- 95
2020-09-16 18:00:00 20 12 Norte 18 Norte 0 -- -- 91
2020-09-16 17:00:00 21.4 13 Norte 21 Norte 0 -- -- 86
2020-09-16 16:00:00 23.7 17 Norte 22 Norte 0 -- -- 80
2020-09-16 15:00:00 23.7 13 Norte 17 Norte 0 -- -- 77
2020-09-16 14:00:00 23.1 11 Norte 15 Norte 0 -- -- 82
2020-09-16 13:00:00 22.4 10 Norte 13 Norte 0 -- -- 83
2020-09-16 12:00:00 21.2 6 Norte 8 Norte 0 -- -- 91
2020-09-16 11:00:00 18.8 5 Norte 10 Sur 0 -- -- 99
2020-09-16 10:00:00 17 6 Sur 10 Sur 0 -- -- 100
2020-09-16 09:00:00 14.9 7 Sur 9 Sur 0 -- -- 100
2020-09-16 08:00:00 14.5 4 Sur 10 Sur 0 -- -- 100
2020-09-16 07:00:00 14.3 7 Sur 12 Sudoeste 0 -- -- 100
2020-09-16 06:00:00 14.7 8 Sur 15 Sur 0 -- -- 100
2020-09-16 05:00:00 15.3 13 Sur 17 Sur 0 -- -- 100
2020-09-16 04:00:00 15.9 5 Sur 13 Sur 0 -- -- 100
2020-09-16 03:00:00 16.2 3 Sur 16 Sur 0 -- -- 100
2020-09-16 02:00:00 16.7 7 Sur 11 Sudeste 0 -- -- 100
2020-09-16 01:00:00 16.9 8 Sur 13 Sudoeste 0 -- -- 100
2020-09-16 00:00:00 17.1 7 Sur 11 Sur 0 -- -- 99
2020-09-15 23:00:00 17.1 4 Sur 8 Sur 0 -- -- 98
2020-09-15 22:00:00 16.7 3 Sur 5 Sur 0 -- -- 95
2020-09-15 21:00:00 18 3 Sur 9 Sur 0 -- -- 93
2020-09-15 20:00:00 19.1 0 Calma 15 Norte 0 -- -- 92
2020-09-15 19:00:00 20.1 12 Norte 23 Nordeste 0 -- -- 85
2020-09-15 18:00:00 22 15 Norte 22 Norte 0 -- -- 79
2020-09-15 17:00:00 22.9 18 Norte 22 Norte 0 -- -- 78
2020-09-15 16:00:00 22.5 17 Norte 21 Norte 0 -- -- 80
2020-09-15 15:00:00 22.2 15 Norte 19 Norte 0 -- -- 84
2020-09-15 14:00:00 21.8 11 Norte 19 Norte 0 -- -- 85
2020-09-15 13:00:00 21.9 13 Norte 18 Norte 0 -- -- 84
2020-09-15 12:00:00 21.6 4 Sur 9 Sur 0 -- -- 89
2020-09-15 11:00:00 19.1 6 Sur 14 Sur 0 -- -- 100
2020-09-15 10:00:00 16.5 10 Sur 18 Sur 0 -- -- 100
2020-09-15 09:00:00 15.8 9 Sur 15 Sudoeste 0 -- -- 100
2020-09-15 08:00:00 16 8 Sur 15 Sur 0 -- -- 100
2020-09-15 07:00:00 16.3 8 Sur 15 Sur 0 -- -- 100
2020-09-15 06:00:00 16.3 9 Sur 20 Sur 0 -- -- 100
2020-09-15 05:00:00 16.5 12 Sur 22 Sur 0 -- -- 100
2020-09-15 04:00:00 16.5 8 Sur 15 Sur 0 -- -- 100
2020-09-15 03:00:00 16.7 12 Sur 16 Sur 0 -- -- 100
2020-09-15 02:00:00 17 6 Sur 11 Sur 0 -- -- 100
2020-09-15 01:00:00 17.3 2 Sur 12 Sur 0 -- -- 100
2020-09-15 00:00:00 17.4 3 Noroeste 13 Sur 0 -- -- 100
2020-09-14 23:00:00 17.7 4 Oeste 13 Noroeste 0 -- -- 100
2020-09-14 22:00:00 17.6 9 Norte 19 Norte 0 -- -- 100
2020-09-14 21:00:00 17.7 13 Norte 19 Norte 0.2 -- -- 100
2020-09-14 20:00:00 17.9 8 Norte 20 Noroeste 0 -- -- 99
2020-09-14 19:00:00 18.1 10 Norte 16 Norte 0.2 -- -- 96
2020-09-14 18:00:00 19.8 9 Norte 14 Norte 0 -- -- 92
2020-09-14 17:00:00 20.7 12 Norte 18 Norte 0 -- -- 89
2020-09-14 16:00:00 21.4 13 Norte 19 Norte 0 -- -- 86
2020-09-14 15:00:00 21 12 Norte 17 Norte 0 -- -- 88
2020-09-14 14:00:00 20.6 8 Norte 12 Norte 0 -- -- 85
2020-09-14 13:00:00 19.5 5 Sur 12 Norte 0 -- -- 85
2020-09-14 12:00:00 19 9 Norte 10 Norte 0 -- -- 86
2020-09-14 11:00:00 18.8 8 Sur 10 Sur 0 -- -- 82
2020-09-14 10:00:00 18.7 8 Sur 12 Sur 0 -- -- 81
2020-09-14 09:00:00 19 5 Sur 12 Sur 0 -- -- 77
2020-09-14 08:00:00 18.7 7 Sur 14 Sur 0 -- -- 79
2020-09-14 07:00:00 18.5 4 Sur 16 Sur 0 -- -- 81
2020-09-14 06:00:00 18.5 12 Sur 21 Sur 0 -- -- 83
2020-09-14 05:00:00 19.4 12 Sur 19 Sur 0 -- -- 82
2020-09-14 04:00:00 19.3 6 Sur 12 Sur 0 -- -- 81
2020-09-14 03:00:00 20.3 0 Calma 6 Sur 0 -- -- 74
2020-09-14 02:00:00 20.8 4 Sur 7 Sur 0 -- -- 78
2020-09-14 01:00:00 21.7 0 Calma 4 Oeste 0 -- -- 71
2020-09-14 00:00:00 22.1 0 Calma 6 Norte 0 -- -- 79
2020-09-13 23:00:00 22.5 6 Norte 12 Sur 0 -- -- 79
2020-09-13 22:00:00 23.1 6 Sur 16 Sur 0 -- -- 76
2020-09-13 21:00:00 24 0 Calma 5 Sur 0 -- -- 76
2020-09-13 20:00:00 25.2 4 Sur 9 Sur 0 -- -- 73
2020-09-13 19:00:00 28.7 3 Sur 8 Norte 0 -- -- 63
2020-09-13 18:00:00 28.4 3 Nordeste 9 Norte 0 -- -- 64
2020-09-13 17:00:00 29.8 6 Norte 14 Norte 0 -- -- 62
2020-09-13 16:00:00 29.7 12 Norte 14 Norte 0 -- -- 55
2020-09-13 15:00:00 28.7 11 Norte 13 Norte 0 -- -- 52
2020-09-13 14:00:00 27.8 9 Norte 13 Norte 0 -- -- 58
2020-09-13 13:00:00 26.6 2 Norte 8 Norte 0 -- -- 55
2020-09-13 12:00:00 25.1 4 Norte 9 Sur 0 -- -- 67
2020-09-13 11:00:00 22.4 6 Sur 12 Sur 0 -- -- 68
2020-09-13 10:00:00 18.7 9 Sur 15 Sur 0 -- -- 84
2020-09-13 09:00:00 15.9 6 Sur 13 Sudoeste 0 -- -- 100
2020-09-13 08:00:00 15.1 10 Sur 18 Sur 0 -- -- 100
2020-09-13 07:00:00 15.1 10 Sur 15 Sur 0 -- -- 100
2020-09-13 06:00:00 16.1 3 Sur 9 Sur 0 -- -- 100
2020-09-13 05:00:00 16.4 5 Sur 6 Sur 0 -- -- 100
2020-09-13 04:00:00 16.7 4 Sur 8 Sur 0 -- -- 100
2020-09-13 03:00:00 17 4 Sur 6 Sur 0 -- -- 100
2020-09-13 02:00:00 17.3 3 Sur 6 Sur 0 -- -- 100
2020-09-13 01:00:00 17.5 5 Sur 8 Sur 0 -- -- 100
2020-09-13 00:00:00 17.8 0 Calma 5 Sur 0 -- -- 100
2020-09-12 23:00:00 17.9 3 Norte 5 Norte 0 -- -- 100
2020-09-12 22:00:00 18.2 3 Norte 6 Norte 0 -- -- 100
2020-09-12 21:00:00 18.7 0 Calma 5 Norte 0 -- -- 99
2020-09-12 20:00:00 19.1 5 Norte 9 Norte 0 -- -- 98
2020-09-12 19:00:00 19.6 7 Norte 13 Norte 0 -- -- 96
2020-09-12 18:00:00 20.2 8 Norte 13 Norte 0 -- -- 95
2020-09-12 17:00:00 20.2 9 Norte 15 Norte 0 -- -- 95
2020-09-12 16:00:00 20.2 12 Norte 17 Norte 0 -- -- 95
2020-09-12 15:00:00 20.8 10 Norte 14 Norte 0.2 -- -- 94
2020-09-12 14:00:00 19.9 10 Norte 13 Norte 0 -- -- 99
2020-09-12 13:00:00 19.1 9 Norte 14 Norte 0 -- -- 100
2020-09-12 12:00:00 18.4 9 Norte 11 Norte 0 -- -- 100
2020-09-12 11:00:00 17.5 0 Calma 6 Sur 0 -- -- 100
2020-09-12 10:00:00 16.9 0 Calma 6 Sur 0 -- -- 100
2020-09-12 09:00:00 16.5 4 Sur 6 Sudoeste 0 -- -- 100
2020-09-12 08:00:00 16.6 4 Sur 5 Sur 0 -- -- 100
2020-09-12 07:00:00 17 3 Sur 5 Sur 0 -- -- 100
2020-09-12 06:00:00 17.2 5 Sur 8 Sur 0 -- -- 100
2020-09-12 05:00:00 17.3 2 Sur 3 Sur 0 -- -- 100
2020-09-12 04:00:00 17.3 0 Calma 7 Norte 0 -- -- 100
2020-09-12 03:00:00 17.2 6 Norte 7 Norte 0 -- -- 100
2020-09-12 02:00:00 17.3 5 Norte 9 Norte 0.2 -- -- 100
2020-09-12 01:00:00 17.5 7 Norte 10 Norte 0 -- -- 100
2020-09-12 00:00:00 17.6 4 Norte 8 Norte 0.2 -- -- 100
2020-09-11 23:00:00 17.8 3 Norte 8 Norte 0.2 -- -- 100
2020-09-11 22:00:00 17.9 7 Norte 12 Norte 0 -- -- 100
2020-09-11 21:00:00 18.1 9 Norte 15 Norte 0 -- -- 100
2020-09-11 20:00:00 18.4 11 Norte 18 Norte 0 -- -- 99
2020-09-11 19:00:00 18.6 13 Norte 18 Norte 0 -- -- 98
2020-09-11 18:00:00 18.7 13 Norte 21 Norte 0 -- -- 97
2020-09-11 17:00:00 19.6 16 Norte 21 Norte 0 -- -- 92
2020-09-11 16:00:00 20.8 18 Norte 22 Norte 0 -- -- 88
2020-09-11 15:00:00 21 14 Norte 20 Norte 0 -- -- 88
2020-09-11 14:00:00 20.8 9 Norte 18 Norte 0 -- -- 88
2020-09-11 13:00:00 19.6 6 Norte 12 Norte 0 -- -- 94
2020-09-11 12:00:00 17.8 4 Norte 8 Norte 0 -- -- 99
2020-09-11 11:00:00 16.6 3 Norte 8 Sur 0 -- -- 100
2020-09-11 10:00:00 15.7 6 Sur 10 Sur 0 -- -- 100
2020-09-11 09:00:00 15.6 5 Sur 8 Sur 0 -- -- 100
2020-09-11 08:00:00 15.6 4 Sur 9 Sur 0 -- -- 100
2020-09-11 07:00:00 15.9 4 Sur 7 Sudoeste 0 -- -- 100
2020-09-11 06:00:00 16 0 Calma 5 Sur 0 -- -- 100
2020-09-11 05:00:00 16 0 Calma 6 Sur 0 -- -- 100
2020-09-11 04:00:00 16.1 3 Este 8 Nordeste 0 -- -- 100
2020-09-11 03:00:00 16.3 4 Norte 8 Norte 0 -- -- 100
2020-09-11 02:00:00 16.4 6 Norte 10 Norte 0 -- -- 100
2020-09-11 01:00:00 16.5 7 Norte 14 Norte 0 -- -- 100
2020-09-11 00:00:00 16.6 10 Norte 14 Norte 0 -- -- 100
2020-09-10 23:00:00 16.8 7 Norte 13 Norte 0 -- -- 100
2020-09-10 22:00:00 17 8 Norte 11 Norte 0 -- -- 99
2020-09-10 21:00:00 17.4 7 Norte 14 Norte 0 -- -- 97
2020-09-10 20:00:00 18 13 Norte 20 Norte 0 -- -- 96
2020-09-10 19:00:00 19.4 16 Norte 21 Norte 0 -- -- 93
2020-09-10 18:00:00 20 16 Norte 25 Norte 0 -- -- 91
2020-09-10 17:00:00 20.1 19 Norte 29 Norte 0 -- -- 90
2020-09-10 16:00:00 21 17 Norte 24 Norte 0 -- -- 87
2020-09-10 15:00:00 21.3 17 Norte 21 Norte 0 -- -- 84
2020-09-10 14:00:00 20.3 15 Norte 21 Norte 0 -- -- 89
2020-09-10 13:00:00 20 14 Norte 18 Norte 0 -- -- 88
2020-09-10 12:00:00 18.7 2 Nordeste 12 Sur 0 -- -- 96
2020-09-10 11:00:00 17.2 6 Sur 9 Sur 0 -- -- 100
2020-09-10 10:00:00 14.3 8 Sur 12 Sur 0 -- -- 100
2020-09-10 09:00:00 13 9 Sur 17 Sur 0 -- -- 100
2020-09-10 08:00:00 13.2 8 Sur 11 Sudoeste 0 -- -- 100
2020-09-10 07:00:00 13.4 9 Sudoeste 13 Sur 0 -- -- 100
2020-09-10 06:00:00 13.7 11 Sur 16 Sur 0 -- -- 100
2020-09-10 05:00:00 14.1 8 Sur 14 Sur 0 -- -- 100
2020-09-10 04:00:00 14.4 6 Sur 8 Sudoeste 0 -- -- 100
2020-09-10 03:00:00 14.5 0 Calma 6 Sur 0 -- -- 100
2020-09-10 02:00:00 15.1 4 Sur 5 Sur 0 -- -- 100
2020-09-10 01:00:00 15.2 0 Calma 5 Noroeste 0 -- -- 100
2020-09-10 00:00:00 15.8 5 Norte 12 Norte 0 -- -- 100
2020-09-09 23:00:00 16.3 10 Norte 15 Norte 0 -- -- 100
2020-09-09 22:00:00 16.5 10 Norte 21 Norte 0 -- -- 99
2020-09-09 21:00:00 16.9 17 Norte 24 Norte 0 -- -- 98
2020-09-09 20:00:00 17.7 17 Norte 22 Norte 0 -- -- 98
2020-09-09 19:00:00 18.2 14 Norte 24 Norte 0 -- -- 96
2020-09-09 18:00:00 19.2 17 Norte 25 Norte 0 -- -- 93
2020-09-09 17:00:00 19.2 16 Norte 23 Norte 0 -- -- 90
2020-09-09 16:00:00 19.9 17 Norte 26 Norte 0 -- -- 87
2020-09-09 15:00:00 20.9 16 Norte 22 Norte 0 -- -- 86
2020-09-09 14:00:00 20.3 14 Norte 21 Norte 0 -- -- 85
2020-09-09 13:00:00 19.5 12 Norte 18 Norte 0 -- -- 86
2020-09-09 12:00:00 18.9 4 Norte 9 Norte 0 -- -- 88
2020-09-09 11:00:00 17 4 Sur 11 Sudeste 0 -- -- 98
2020-09-09 10:00:00 14.1 6 Sur 8 Sur 0 -- -- 100
2020-09-09 09:00:00 12.3 5 Sur 7 Sur 0 -- -- 100
2020-09-09 08:00:00 12.2 4 Sur 6 Sur 0 -- -- 100
2020-09-09 07:00:00 12.2 5 Sur 6 Sur 0 -- -- 100
2020-09-09 06:00:00 12.5 3 Sur 6 Sur 0 -- -- 100
2020-09-09 05:00:00 12.4 4 Sur 8 Sur 0 -- -- 100
2020-09-09 04:00:00 12.5 4 Sur 8 Sur 0 -- -- 100
2020-09-09 03:00:00 12.7 5 Sur 8 Sur 0 -- -- 100
2020-09-09 02:00:00 12.9 4 Sur 8 Sur 0 -- -- 100
2020-09-09 01:00:00 13 6 Sur 8 Sur 0 -- -- 99
2020-09-09 00:00:00 13.5 7 Sur 9 Sur 0 -- -- 98
2020-09-08 23:00:00 13.8 7 Sur 9 Sur 0 -- -- 96
2020-09-08 22:00:00 14.8 4 Sur 8 Sur 0 -- -- 93
2020-09-08 21:00:00 16.4 4 Sur 6 Sur 0 -- -- 88
2020-09-08 20:00:00 17.6 5 Norte 13 Noroeste 0 -- -- 83
2020-09-08 19:00:00 20.6 11 Noroeste 18 Norte 0 -- -- 74
2020-09-08 18:00:00 21.3 14 Norte 24 Norte 0 -- -- 74
2020-09-08 17:00:00 21.6 17 Norte 27 Norte 0 -- -- 76
2020-09-08 16:00:00 21.5 18 Norte 32 Norte 0 -- -- 77
2020-09-08 15:00:00 20.8 24 Norte 31 Norte 0 -- -- 78
2020-09-08 14:00:00 20.4 17 Norte 24 Norte 0 -- -- 76
2020-09-08 13:00:00 19.7 3 Noroeste 10 Norte 0 -- -- 76
2020-09-08 12:00:00 17.5 6 Norte 14 Norte 0 -- -- 79
2020-09-08 11:00:00 15.5 10 Norte 12 Norte 0 -- -- 84
2020-09-08 10:00:00 12.5 4 Sur 7 Sur 0 -- -- 97
2020-09-08 09:00:00 9.9 5 Sur 7 Sur 0 -- -- 98
2020-09-08 08:00:00 10.3 2 Sudoeste 6 Sur 0 -- -- 98
2020-09-08 07:00:00 10.5 4 Sur 7 Sudoeste 0 -- -- 98
2020-09-08 06:00:00 10.8 5 Sur 9 Noroeste 0 -- -- 95
2020-09-08 05:00:00 11.7 4 Norte 7 Norte 0 -- -- 98
2020-09-08 04:00:00 12.1 5 Norte 7 Norte 0 -- -- 99
2020-09-08 03:00:00 12.3 6 Norte 9 Norte 0 -- -- 100
2020-09-08 02:00:00 12.4 7 Norte 11 Norte 0 -- -- 99
2020-09-08 01:00:00 12.4 9 Norte 12 Norte 0 -- -- 99
2020-09-08 00:00:00 12.7 10 Norte 12 Norte 0 -- -- 97
2020-09-07 23:00:00 13 8 Norte 17 Norte 0 -- -- 95
2020-09-07 22:00:00 14.2 13 Norte 21 Norte 0 -- -- 94
2020-09-07 21:00:00 14.9 15 Norte 24 Norte 0 -- -- 92
2020-09-07 20:00:00 16 18 Norte 38 Norte 0 -- -- 87
2020-09-07 19:00:00 17.8 27 Norte 46 Norte 0 -- -- 82
2020-09-07 18:00:00 18 32 Norte 48 Norte 0 -- -- 83
2020-09-07 17:00:00 18.7 36 Norte 48 Norte 0 -- -- 82
2020-09-07 16:00:00 19.3 31 Norte 50 Norte 0 -- -- 82
2020-09-07 15:00:00 19.1 35 Norte 55 Norte 0 -- -- 80
2020-09-07 14:00:00 19 31 Norte 42 Norte 0 -- -- 78
2020-09-07 13:00:00 19.3 25 Norte 39 Norte 0 -- -- 72
2020-09-07 12:00:00 18.4 22 Norte 36 Norte 0 -- -- 74
2020-09-07 11:00:00 16.9 21 Norte 37 Norte 0 -- -- 78
2020-09-07 10:00:00 15.1 18 Norte 27 Norte 0 -- -- 90
2020-09-07 09:00:00 12.8 14 Norte 23 Noroeste 0 -- -- 96
2020-09-07 08:00:00 12.5 12 Norte 18 Noroeste 0 -- -- 98
2020-09-07 07:00:00 11.8 6 Norte 11 Norte 0 -- -- 98
2020-09-07 06:00:00 12.2 5 Norte 9 Norte 0 -- -- 98
2020-09-07 05:00:00 12.8 7 Norte 14 Norte 0 -- -- 97
2020-09-07 04:00:00 13 13 Norte 18 Norte 0 -- -- 96
2020-09-07 03:00:00 13.4 15 Norte 25 Norte 0 -- -- 95
2020-09-07 02:00:00 14 19 Norte 35 Norte 0 -- -- 93
2020-09-07 01:00:00 14.3 20 Norte 34 Norte 0 -- -- 93
2020-09-07 00:00:00 14.1 21 Norte 32 Norte 0 -- -- 94
2020-09-06 23:00:00 14 21 Norte 27 Norte 0 -- -- 94
2020-09-06 22:00:00 13.9 21 Norte 30 Noroeste 0 -- -- 93
2020-09-06 21:00:00 14.4 21 Norte 37 Norte 0 -- -- 91
2020-09-06 20:00:00 15.4 26 Norte 39 Norte 0 -- -- 88
2020-09-06 19:00:00 16 28 Norte 41 Norte 0 -- -- 86
2020-09-06 18:00:00 16.9 29 Norte 46 Norte 0 -- -- 86
2020-09-06 17:00:00 16.6 27 Norte 42 Norte 0 -- -- 88
2020-09-06 16:00:00 16.1 31 Norte 44 Norte 0 -- -- 89
2020-09-06 15:00:00 16.3 23 Norte 36 Norte 0 -- -- 91
2020-09-06 14:00:00 15.9 23 Norte 36 Norte 0 -- -- 91
2020-09-06 13:00:00 15.9 23 Norte 40 Norte 0 -- -- 93
2020-09-06 12:00:00 15.3 26 Norte 42 Norte 0 -- -- 94
2020-09-06 11:00:00 15.1 23 Norte 38 Norte 0 -- -- 97
2020-09-06 10:00:00 14.2 24 Norte 41 Norte 0 -- -- 99
2020-09-06 09:00:00 14 21 Norte 36 Norte 0 -- -- 100
2020-09-06 08:00:00 13.9 26 Norte 37 Norte 0 -- -- 100
2020-09-06 07:00:00 13.8 25 Norte 41 Norte 0 -- -- 100
2020-09-06 06:00:00 13.8 23 Norte 44 Norte 0 -- -- 100
2020-09-06 05:00:00 13.8 24 Norte 38 Norte 0 -- -- 100
2020-09-06 04:00:00 13.8 29 Norte 40 Norte 0.2 -- -- 100
2020-09-06 03:00:00 13.9 26 Norte 43 Norte 0 -- -- 100
2020-09-06 02:00:00 14 30 Norte 41 Norte 0.4 -- -- 100
2020-09-06 01:00:00 14.5 28 Norte 40 Norte 0.2 -- -- 100
2020-09-06 00:00:00 14.6 24 Norte 37 Norte 0 -- -- 100
2020-09-05 23:00:00 14.5 29 Norte 50 Norte 0.4 -- -- 100
2020-09-05 22:00:00 15 30 Norte 44 Norte 0.6 -- -- 100
2020-09-05 21:00:00 15 26 Norte 38 Norte 0.2 -- -- 100
2020-09-05 20:00:00 15.2 29 Norte 43 Norte 0 -- -- 100
2020-09-05 19:00:00 15.6 26 Norte 41 Norte 0.4 -- -- 100
2020-09-05 18:00:00 15.8 26 Norte 36 Norte 0.2 -- -- 100
2020-09-05 17:00:00 16 24 Norte 38 Norte 0 -- -- 100
2020-09-05 16:00:00 16.3 23 Norte 34 Norte 0 -- -- 100
2020-09-05 15:00:00 16.2 25 Norte 37 Noroeste 0 -- -- 100
2020-09-05 14:00:00 16.4 26 Norte 37 Norte 0 -- -- 100
2020-09-05 13:00:00 16.7 21 Norte 31 Norte 0 -- -- 100
2020-09-05 12:00:00 16.3 17 Norte 31 Norte 0 -- -- 100
2020-09-05 11:00:00 16 21 Norte 33 Norte 0.2 -- -- 100
2020-09-05 10:00:00 16 17 Norte 28 Norte 0 -- -- 100
2020-09-05 09:00:00 15.7 19 Norte 31 Norte 0 -- -- 100
2020-09-05 08:00:00 15.8 19 Norte 27 Noroeste 0 -- -- 100
2020-09-05 07:00:00 16 22 Norte 32 Norte 0.4 -- -- 100
2020-09-05 06:00:00 16.4 19 Norte 26 Norte 0.6 -- -- 100
2020-09-05 05:00:00 16.7 20 Norte 27 Norte 0.4 -- -- 100
2020-09-05 04:00:00 17.1 19 Norte 28 Norte 0 -- -- 100
2020-09-05 03:00:00 17.6 14 Norte 23 Norte 0 -- -- 100
2020-09-05 02:00:00 17.9 13 Norte 17 Norte 0 -- -- 100
2020-09-05 01:00:00 18 9 Norte 13 Norte 0 -- -- 100
2020-09-05 00:00:00 18.2 10 Norte 14 Norte 0 -- -- 99
2020-09-04 23:00:00 18.3 9 Norte 13 Norte 0 -- -- 99
2020-09-04 22:00:00 18.5 7 Norte 12 Nordeste 0 -- -- 98
2020-09-04 21:00:00 18.8 9 Norte 14 Norte 0 -- -- 97
2020-09-04 20:00:00 19.1 5 Norte 19 Norte 0 -- -- 96
2020-09-04 19:00:00 19.4 19 Norte 26 Norte 0 -- -- 93
2020-09-04 18:00:00 22.4 20 Norte 24 Norte 0 -- -- 82
2020-09-04 17:00:00 25.2 17 Norte 21 Norte 0 -- -- 73
2020-09-04 16:00:00 24.5 10 Norte 18 Norte 0 -- -- 78
2020-09-04 15:00:00 24.7 12 Norte 15 Norte 0 -- -- 82
2020-09-04 14:00:00 25.3 8 Norte 13 Norte 0 -- -- 80
2020-09-04 13:00:00 24.3 9 Norte 11 Norte 0 -- -- 80
2020-09-04 12:00:00 22.7 6 Norte 8 Norte 0 -- -- 85
2020-09-04 11:00:00 21.9 3 Sur 5 Sur 0 -- -- 85
2020-09-04 10:00:00 18.5 3 Norte 10 Sur 0 -- -- 97
2020-09-04 09:00:00 15.5 5 Sur 9 Sur 0 -- -- 100
2020-09-04 08:00:00 14.9 6 Sur 9 Sur 0 -- -- 100
2020-09-04 07:00:00 15.5 0 Calma 6 Sur 0 -- -- 100
2020-09-04 06:00:00 15.8 0 Calma 6 Sur 0 -- -- 100
2020-09-04 05:00:00 15.9 0 Calma 5 Sur 0 -- -- 100
2020-09-04 04:00:00 16.1 0 Calma 6 Sur 0 -- -- 100
2020-09-04 03:00:00 16.1 3 Sur 8 Sur 0 -- -- 100
2020-09-04 02:00:00 15.9 5 Sur 9 Sur 0 -- -- 99
2020-09-04 01:00:00 16 5 Sur 6 Sur 0 -- -- 97
2020-09-04 00:00:00 16.2 4 Sur 5 Sur 0 -- -- 97
2020-09-03 23:00:00 16.2 4 Sur 5 Sur 0 -- -- 96
2020-09-03 22:00:00 16.4 2 Norte 6 Norte 0 -- -- 94
2020-09-03 21:00:00 17.5 6 Norte 8 Nordeste 0 -- -- 93
2020-09-03 20:00:00 19.1 5 Norte 11 Norte 0 -- -- 89
2020-09-03 19:00:00 21.7 10 Norte 15 Noroeste 0 -- -- 82
2020-09-03 18:00:00 22.4 11 Norte 18 Nordeste 0 -- -- 82
2020-09-03 17:00:00 22.8 12 Norte 17 Norte 0 -- -- 83
2020-09-03 16:00:00 23.3 10 Norte 16 Norte 0 -- -- 82
2020-09-03 15:00:00 23.2 13 Norte 18 Norte 0 -- -- 81
2020-09-03 14:00:00 23.1 11 Norte 14 Norte 0 -- -- 82
2020-09-03 13:00:00 22.6 9 Norte 12 Norte 0 -- -- 83
2020-09-03 12:00:00 21.3 6 Norte 8 Sur 0 -- -- 88
2020-09-03 11:00:00 18.6 6 Sur 11 Sur 0 -- -- 99
2020-09-03 10:00:00 15.4 9 Sur 12 Sur 0 -- -- 100
2020-09-03 09:00:00 13.2 8 Sur 12 Sur 0 -- -- 100
2020-09-03 08:00:00 13.2 7 Sur 12 Sur 0 -- -- 100
2020-09-03 07:00:00 13.6 8 Sur 12 Sudoeste 0 -- -- 100
2020-09-03 06:00:00 14.3 8 Sur 14 Sur 0 -- -- 100
2020-09-03 05:00:00 14.9 7 Sur 12 Sur 0 -- -- 100
2020-09-03 04:00:00 15.2 6 Sur 13 Sur 0 -- -- 100
2020-09-03 03:00:00 14.5 4 Sur 8 Sur 0 -- -- 100
2020-09-03 02:00:00 14.1 4 Sur 8 Sur 0 -- -- 100
2020-09-03 01:00:00 14.3 4 Sur 6 Sur 0 -- -- 100
2020-09-03 00:00:00 14.6 5 Sur 6 Sur 0 -- -- 99
2020-09-02 23:00:00 15 4 Sur 5 Sur 0 -- -- 98
2020-09-02 22:00:00 15.5 0 Calma 10 Norte 0 -- -- 96
2020-09-02 21:00:00 17.3 9 Norte 17 Norte 0 -- -- 93
2020-09-02 20:00:00 18 14 Norte 20 Norte 0 -- -- 91
2020-09-02 19:00:00 18.8 13 Norte 19 Norte 0 -- -- 88
2020-09-02 18:00:00 19.4 17 Norte 23 Norte 0 -- -- 87
2020-09-02 17:00:00 19.9 16 Norte 28 Norte 0 -- -- 84
2020-09-02 16:00:00 20 22 Norte 30 Norte 0 -- -- 83
2020-09-02 15:00:00 19.8 21 Norte 26 Norte 0 -- -- 82
2020-09-02 14:00:00 19.1 12 Norte 18 Norte 0 -- -- 85
2020-09-02 13:00:00 17.6 10 Norte 19 Norte 0 -- -- 88
2020-09-02 12:00:00 16.8 14 Norte 19 Norte 0 -- -- 90
2020-09-02 11:00:00 16.4 13 Norte 17 Norte 0 -- -- 90
2020-09-02 10:00:00 15.8 12 Norte 16 Noroeste 0 -- -- 94
2020-09-02 09:00:00 13.8 10 Norte 15 Norte 0 -- -- 96
2020-09-02 08:00:00 13.5 7 Norte 16 Norte 0 -- -- 96
2020-09-02 07:00:00 14 7 Norte 11 Norte 0 -- -- 96
2020-09-02 06:00:00 14 8 Norte 11 Norte 0 -- -- 97
2020-09-02 05:00:00 14 8 Norte 13 Norte 0 -- -- 97
2020-09-02 04:00:00 14 8 Norte 14 Norte 0 -- -- 97
2020-09-02 03:00:00 13.4 6 Norte 8 Norte 0 -- -- 98
2020-09-02 02:00:00 13 5 Norte 10 Norte 0 -- -- 98
2020-09-02 01:00:00 13.2 5 Norte 10 Noroeste 0 -- -- 96
2020-09-02 00:00:00 13.9 8 Norte 12 Norte 0 -- -- 96
2020-09-01 23:00:00 14.1 9 Norte 17 Norte 0 -- -- 94
2020-09-01 22:00:00 14.7 12 Norte 18 Norte 0 -- -- 93
2020-09-01 21:00:00 15.7 15 Norte 24 Norte 0 -- -- 90
2020-09-01 20:00:00 16.5 14 Norte 27 Norte 0 -- -- 87
2020-09-01 19:00:00 18.3 21 Norte 32 Norte 0 -- -- 81
2020-09-01 18:00:00 17.8 22 Norte 32 Norte 0 -- -- 86
2020-09-01 17:00:00 18.6 25 Norte 35 Norte 0 -- -- 82
2020-09-01 16:00:00 18.8 25 Norte 35 Norte 0 -- -- 84
2020-09-01 15:00:00 19.8 22 Norte 33 Norte 0 -- -- 85
2020-09-01 14:00:00 18.8 22 Norte 30 Norte 0 -- -- 88
2020-09-01 13:00:00 18.4 17 Norte 24 Norte 0 -- -- 87
2020-09-01 12:00:00 18.9 14 Norte 19 Norte 0 -- -- 86
2020-09-01 11:00:00 17.1 8 Norte 12 Norte 0 -- -- 95
2020-09-01 10:00:00 15.4 5 Norte 9 Norte 0 -- -- 97
2020-09-01 09:00:00 13.3 5 Sur 7 Sur 0 -- -- 96
2020-09-01 08:00:00 12.7 4 Sur -- -- 0 -- -- 94
2020-09-01 07:00:00 12.6 0 Calma 6 Sur 0 -- -- 94
2020-09-01 06:00:00 12.6 0 Calma 5 Sur 0 -- -- 91
2020-09-01 05:00:00 13.2 3 Sur 6 Sur 0 -- -- 91
2020-09-01 04:00:00 13.2 5 Sur 8 Sur 0 -- -- 91
2020-09-01 03:00:00 13.3 6 Sur 10 Sur 0 -- -- 91
2020-09-01 02:00:00 13.7 5 Sur 5 Sur 0 -- -- 90
2020-09-01 01:00:00 14 3 Sudoeste 6 Sudoeste 0 -- -- 89
2020-09-01 00:00:00 14.2 5 Sur 7 Sur 0 -- -- 88
2020-08-31 23:00:00 14.3 3 Sudoeste 5 Nordeste 0 -- -- 86
2020-08-31 22:00:00 14.7 2 Nordeste 4 Nordeste 0 -- -- 85
2020-08-31 21:00:00 16.1 0 Calma 9 Noroeste 0 -- -- 81
2020-08-31 20:00:00 17.4 4 Norte 11 Norte 0 -- -- 78
2020-08-31 19:00:00 18.3 8 Norte 17 Norte 0 -- -- 68
2020-08-31 18:00:00 18.5 13 Norte 19 Norte 0 -- -- 75
2020-08-31 17:00:00 19.3 10 Norte 14 Norte 0 -- -- 75
2020-08-31 16:00:00 20.3 8 Norte 14 Norte 0 -- -- 72
2020-08-31 15:00:00 20 7 Norte 10 Norte 0 -- -- 72
2020-08-31 14:00:00 19.5 8 Norte 12 Norte 0 -- -- 71
2020-08-31 13:00:00 18.6 6 Norte 11 Norte 0 -- -- 75
2020-08-31 12:00:00 16.9 9 Norte 12 Norte 0 -- -- 77
2020-08-31 11:00:00 15.4 0 Calma 7 Sur 0 -- -- 85
2020-08-31 10:00:00 12.4 5 Sur 8 Sur 0 -- -- 95
2020-08-31 09:00:00 9.9 7 Sur 9 Sur 0 -- -- 99
2020-08-31 08:00:00 9 6 Sur 9 Sur 0 -- -- 98
2020-08-31 07:00:00 9 5 Sur 10 Sur 0 -- -- 99
2020-08-31 06:00:00 9.1 5 Sur 9 Sur 0 -- -- 99
2020-08-31 05:00:00 9.2 5 Sur 10 Sudoeste 0 -- -- 98
2020-08-31 04:00:00 9.4 6 Sur 9 Sur 0 -- -- 98
2020-08-31 03:00:00 9.6 6 Sur 8 Sur 0 -- -- 97
2020-08-31 02:00:00 10.3 3 Sur 5 Sur 0 -- -- 96
2020-08-31 01:00:00 11 4 Norte 9 Norte 0 -- -- 95
2020-08-31 00:00:00 11.5 7 Norte 19 Norte 0 -- -- 93
2020-08-30 23:00:00 12.3 9 Norte 19 Noroeste 0 -- -- 91
2020-08-30 22:00:00 11.5 6 Norte 10 Norte 0 -- -- 92
2020-08-30 21:00:00 12.1 7 Norte 21 Norte 0 -- -- 89
2020-08-30 20:00:00 13.9 13 Norte 25 Norte 0 -- -- 84
2020-08-30 19:00:00 16 18 Norte 27 Norte 0 -- -- 78
2020-08-30 18:00:00 16.7 19 Norte 29 Norte 0 -- -- 75
2020-08-30 17:00:00 16.4 16 Norte 25 Norte 0 -- -- 84
2020-08-30 16:00:00 13.6 7 Norte 31 Norte 2.6 -- -- 96
2020-08-30 15:00:00 15.6 13 Norte 18 Norte 0.2 -- -- 93
2020-08-30 14:00:00 14.6 18 Norte 28 Norte 0.4 -- -- 87
2020-08-30 13:00:00 13.3 4 Nordeste 39 Norte 1.2 -- -- 97
2020-08-30 12:00:00 15.1 17 Norte 23 Norte 0 -- -- 85
2020-08-30 11:00:00 14.6 6 Norte 11 Norte 0 -- -- 99
2020-08-30 10:00:00 12 3 Sur 8 Sur 0 -- -- 100
2020-08-30 09:00:00 10.8 5 Sur 12 Sur 0.8 -- -- 100
2020-08-30 08:00:00 10.5 2 Sur 8 Sur 0.8 -- -- 100
2020-08-30 07:00:00 10.3 3 Sur 6 Sur 0 -- -- 100
2020-08-30 06:00:00 11.1 5 Sur 6 Sur 0 -- -- 100
2020-08-30 05:00:00 11.5 3 Sur 5 Sudeste 0 -- -- 100
2020-08-30 04:00:00 11.9 4 Sur 9 Noroeste 0.2 -- -- 100
2020-08-30 03:00:00 12 3 Norte 13 Norte 2.6 -- -- 100
2020-08-30 02:00:00 12.1 2 Sudoeste 5 Norte 0 -- -- 100
2020-08-30 01:00:00 12.2 2 Norte 10 Norte 0 -- -- 100
2020-08-30 00:00:00 12.1 2 Sur 5 Sur 0 -- -- 100
2020-08-29 23:00:00 12.1 6 Norte 32 Norte 1.4 -- -- 99
2020-08-29 22:00:00 11.9 2 Norte 11 Norte 0 -- -- 97
2020-08-29 21:00:00 12.9 12 Norte 39 Norte 1.4 -- -- 95
2020-08-29 20:00:00 15.1 19 Norte 26 Norte 0 -- -- 86
2020-08-29 19:00:00 15.2 24 Norte 38 Norte 0.4 -- -- 86
2020-08-29 18:00:00 16.6 26 Norte 40 Norte 0 -- -- 83
2020-08-29 17:00:00 15.7 18 Norte 37 Nordeste 0.6 -- -- 87
2020-08-29 16:00:00 16.1 24 Norte 36 Norte 0 -- -- 80
2020-08-29 15:00:00 16 24 Norte 40 Norte 0 -- -- 85
2020-08-29 14:00:00 15.3 24 Norte 36 Norte 0.4 -- -- 94
2020-08-29 13:00:00 14.9 19 Norte 28 Norte 0.6 -- -- 98
2020-08-29 12:00:00 14.4 7 Norte 19 Norte 0.2 -- -- 100
2020-08-29 11:00:00 13.6 15 Norte 24 Noroeste 2.2 -- -- 100
2020-08-29 10:00:00 12.7 6 Sur 9 Sudoeste 0.8 -- -- 100
2020-08-29 09:00:00 12.4 5 Noroeste 21 Norte 5.4 -- -- 100
2020-08-29 08:00:00 12.5 4 Sur 12 Nordeste 2 -- -- 100
2020-08-29 07:00:00 12.8 5 Este 16 Sudeste 0.4 -- -- 100
2020-08-29 06:00:00 12.4 8 Sudeste 13 Sudeste 0.2 -- -- 100
2020-08-29 05:00:00 12.3 7 Sur 13 Este 0 -- -- 100
2020-08-29 04:00:00 12.6 5 Sur 12 Sudeste 1.6 -- -- 100
2020-08-29 03:00:00 12.5 4 Sur 9 Sur 1.8 -- -- 100
2020-08-29 02:00:00 12.3 7 Sur 11 Sur 3.4 -- -- 99
2020-08-29 01:00:00 12.7 7 Sur 13 Sur 0.8 -- -- 97
2020-08-29 00:00:00 13.1 4 Sudoeste 14 Sur 0.6 -- -- 93
2020-08-28 23:00:00 13.8 3 Sur 13 Sudeste 0 -- -- 86
2020-08-28 22:00:00 13.7 3 Sudoeste 9 Sudeste 0 -- -- 83
2020-08-28 21:00:00 15.3 3 Norte 13 Sur 0 -- -- 80
2020-08-28 20:00:00 16.9 2 Sur 17 Nordeste 0 -- -- 74
2020-08-28 19:00:00 16.8 6 Nordeste 14 Este 0 -- -- 77
2020-08-28 18:00:00 15.9 5 Sur 15 Norte 0 -- -- 79
2020-08-28 17:00:00 16.1 11 Nordeste 23 Nordeste 0 -- -- 79
2020-08-28 16:00:00 16.9 13 Norte 26 Norte 0 -- -- 76
2020-08-28 15:00:00 17.7 14 Norte 25 Norte 0 -- -- 75
2020-08-28 14:00:00 18.7 6 Nordeste 20 Norte 0 -- -- 67
2020-08-28 13:00:00 18.6 8 Sudeste 24 Sur 0 -- -- 75
2020-08-28 12:00:00 16.3 6 Sur 15 Sur 0 -- -- 90
2020-08-28 11:00:00 14.6 9 Sur 23 Sudoeste 0.2 -- -- 94
2020-08-28 10:00:00 14.8 9 Sur 15 Sur 0 -- -- 94
2020-08-28 09:00:00 13.8 7 Sur 9 Sur 0 -- -- 96
2020-08-28 08:00:00 13.7 6 Sur 10 Sur 0 -- -- 97
2020-08-28 07:00:00 13.6 2 Sudeste 9 Sur 0 -- -- 97
2020-08-28 06:00:00 13.9 4 Sur 16 Sur 0 -- -- 95
2020-08-28 05:00:00 15 9 Sudeste 14 Sur 0 -- -- 98
2020-08-28 04:00:00 16.5 4 Sur 7 Noroeste 0 -- -- 100
2020-08-28 03:00:00 16.7 0 Calma 11 Nordeste 0 -- -- 100
2020-08-28 02:00:00 16.9 2 Sur 13 Nordeste 0 -- -- 100
2020-08-28 01:00:00 16.7 9 Norte 17 Norte 0 -- -- 100
2020-08-28 00:00:00 17.1 9 Norte 15 Norte 0 -- -- 99
2020-08-27 23:00:00 18.4 9 Norte 17 Nordeste 3.2 -- -- 96
2020-08-27 22:00:00 20.9 19 Norte 26 Norte 0 -- -- 84
2020-08-27 21:00:00 23.1 7 Sur 23 Sur 0 -- -- 75
2020-08-27 20:00:00 24 8 Sur 24 Sur 0 -- -- 72
2020-08-27 19:00:00 26.1 11 Sur 30 Sur 0 -- -- 65
2020-08-27 18:00:00 26 19 Sur 36 Sur 0 -- -- 63
2020-08-27 17:00:00 26.2 18 Sur 37 Sur 0 -- -- 66
2020-08-27 16:00:00 25.4 15 Sur 39 Sur 0 -- -- 67
2020-08-27 15:00:00 25 20 Sur 40 Sur 0 -- -- 69
2020-08-27 14:00:00 22.6 22 Sur 39 Sur 0 -- -- 77
2020-08-27 13:00:00 22.3 23 Sur 37 Sur 0 -- -- 81
2020-08-27 12:00:00 22.5 12 Sur 24 Sur 0 -- -- 82
2020-08-27 11:00:00 22.2 17 Sur 32 Sur 0 -- -- 82
2020-08-27 10:00:00 21.5 19 Sur 31 Sudoeste 0 -- -- 86
2020-08-27 09:00:00 20 18 Sur 33 Sur 0 -- -- 95
2020-08-27 08:00:00 19.7 19 Sur 28 Sur 0 -- -- 100
2020-08-27 07:00:00 18.8 7 Sur 13 Sur 0 -- -- 100
2020-08-27 06:00:00 18.6 6 Sudoeste 17 Sur 0 -- -- 100
2020-08-27 05:00:00 18.2 12 Sur 19 Sur 0 -- -- 100
2020-08-27 04:00:00 18.2 9 Sur 19 Sur 0 -- -- 100
2020-08-27 03:00:00 18.7 6 Sur 14 Sur 0 -- -- 100
2020-08-27 02:00:00 18.8 5 Sur 12 Sur 0 -- -- 100
2020-08-27 01:00:00 19 6 Sur 12 Sur 0 -- -- 100
2020-08-27 00:00:00 19.1 6 Sur 10 Sur 0 -- -- 100
2020-08-26 23:00:00 19.1 8 Sur 10 Sur 0 -- -- 100
2020-08-26 22:00:00 19.2 0 Calma 6 Norte 0 -- -- 100
2020-08-26 21:00:00 19.4 5 Norte 8 Norte 0 -- -- 100
2020-08-26 20:00:00 19.5 5 Norte 14 Norte 0 -- -- 100
2020-08-26 19:00:00 19.6 12 Norte 18 Norte 0 -- -- 99
2020-08-26 18:00:00 20.3 14 Norte 18 Norte 0 -- -- 97
2020-08-26 17:00:00 21.9 12 Norte 17 Norte 0 -- -- 95
2020-08-26 16:00:00 21.7 13 Norte 18 Norte 0 -- -- 97
2020-08-26 15:00:00 21.6 12 Norte 17 Norte 0 -- -- 98
2020-08-26 14:00:00 20.7 14 Norte 19 Norte 0 -- -- 99
2020-08-26 13:00:00 21.8 15 Norte 19 Norte 0 -- -- 99
2020-08-26 12:00:00 22.3 9 Norte 12 Norte 0 -- -- 100
2020-08-26 11:00:00 20.2 0 Calma 6 Sur 0 -- -- 100
2020-08-26 10:00:00 18.9 0 Calma 5 Sur 0 -- -- 100
2020-08-26 09:00:00 18.6 0 Calma 4 Sur 0 -- -- 100
2020-08-26 08:00:00 18.3 2 Norte 6 Norte 0 -- -- 100
2020-08-26 07:00:00 18.4 3 Norte 7 Norte 0.2 -- -- 100
2020-08-26 06:00:00 18.5 4 Norte 6 Norte 0 -- -- 100
2020-08-26 05:00:00 18.6 3 Norte 4 Norte 0 -- -- 100
2020-08-26 04:00:00 18.6 2 Norte 5 Norte 0.2 -- -- 100
2020-08-26 03:00:00 18.7 3 Norte 8 Sur 0 -- -- 100
2020-08-26 02:00:00 18.7 0 Calma 4 Noroeste 0 -- -- 100
2020-08-26 01:00:00 18.8 4 Norte 10 Norte 0 -- -- 100
2020-08-26 00:00:00 18.9 9 Norte 13 Norte 0 -- -- 100
2020-08-25 23:00:00 19.2 9 Norte 17 Noroeste 0 -- -- 99
2020-08-25 22:00:00 19.3 12 Norte 19 Norte 0 -- -- 98
2020-08-25 21:00:00 19.8 13 Norte 18 Norte 0 -- -- 95
2020-08-25 20:00:00 20.8 14 Norte 22 Norte 0 -- -- 91
2020-08-25 19:00:00 22.4 17 Norte 22 Norte 0 -- -- 85
2020-08-25 18:00:00 25 10 Norte 18 Norte 0 -- -- 76
2020-08-25 17:00:00 27.5 8 Oeste 30 Sudeste 0 -- -- 62
2020-08-25 16:00:00 27.5 12 Sur 32 Sur 0 -- -- 61
2020-08-25 15:00:00 26.5 19 Sur 36 Sur 0 -- -- 62
2020-08-25 14:00:00 25.2 18 Sur 34 Sur 0 -- -- 68
2020-08-25 13:00:00 24 21 Sur 36 Sur 0 -- -- 72
2020-08-25 12:00:00 22.8 19 Sur 37 Sur 0 -- -- 71
2020-08-25 11:00:00 21.5 16 Sur 31 Sudoeste 0 -- -- 66
2020-08-25 10:00:00 20.6 10 Sur 19 Sur 0 -- -- 64
2020-08-25 09:00:00 17 11 Sur 32 Sur 0 -- -- 76
2020-08-25 08:00:00 19.4 13 Sur 35 Sur 0 -- -- 63
2020-08-25 07:00:00 19.4 20 Sur 34 Sur 0 -- -- 68
2020-08-25 06:00:00 16.9 10 Sur 21 Sudeste 0 -- -- 79
2020-08-25 05:00:00 15.6 8 Sur 17 Sur 0 -- -- 92
2020-08-25 04:00:00 17.1 10 Sur 18 Sur 0 -- -- 93
2020-08-25 03:00:00 17.5 8 Sudoeste 14 Sur 0 -- -- 95
2020-08-25 02:00:00 17.7 5 Sudoeste 14 Sur 0 -- -- 95
2020-08-25 01:00:00 17.5 8 Sur 13 Sur 0 -- -- 96
2020-08-25 00:00:00 17.8 9 Sur 17 Sur 0 -- -- 97
2020-08-24 23:00:00 16.8 4 Sur 6 Sur 0 -- -- 95
2020-08-24 22:00:00 17.6 2 Sur 4 Sur 0 -- -- 91
2020-08-24 21:00:00 19 0 Calma 4 Noroeste 0 -- -- 88
2020-08-24 20:00:00 20.7 3 Norte 12 Norte 0 -- -- 82
2020-08-24 19:00:00 21.6 11 Norte 18 Norte 0 -- -- 81
2020-08-24 18:00:00 22.6 10 Norte 18 Norte 0 -- -- 80
2020-08-24 17:00:00 22.4 13 Norte 21 Norte 0 -- -- 81
2020-08-24 16:00:00 22.6 17 Norte 22 Norte 0 -- -- 82
2020-08-24 15:00:00 22.4 9 Norte 21 Norte 0 -- -- 82
2020-08-24 14:00:00 21.3 10 Norte 18 Norte 0 -- -- 84
2020-08-24 13:00:00 20 11 Norte 17 Norte 0 -- -- 89
2020-08-24 12:00:00 18.8 9 Norte 12 Norte 0 -- -- 96
2020-08-24 11:00:00 17.5 6 Norte 10 Norte 0 -- -- 99
2020-08-24 10:00:00 15.7 4 Sudeste 6 Sur 0 -- -- 100
2020-08-24 09:00:00 14.4 4 Sur 6 Sudeste 0 -- -- 100
2020-08-24 08:00:00 14.3 4 Norte 13 Noroeste 0 -- -- 100
2020-08-24 07:00:00 14.6 6 Norte 11 Noroeste 0 -- -- 100
2020-08-24 06:00:00 13.6 0 Calma 6 Sur 0 -- -- 100
2020-08-24 05:00:00 13.9 3 Sur 10 Norte 0 -- -- 100
2020-08-24 04:00:00 13.9 4 Noroeste 10 Noroeste 0 -- -- 100
2020-08-24 03:00:00 13.3 2 Nordeste 4 Nordeste 0 -- -- 100
2020-08-24 02:00:00 13.4 0 Calma 5 Nordeste 0 -- -- 99
2020-08-24 01:00:00 13.9 0 Calma 7 Nordeste 0 -- -- 98
2020-08-24 00:00:00 14.6 2 Norte 7 Nordeste 0 -- -- 98
2020-08-23 23:00:00 14.6 3 Norte 4 Nordeste 0 -- -- 96
2020-08-23 22:00:00 15.5 5 Norte 11 Norte 0 -- -- 94
2020-08-23 21:00:00 16.9 10 Norte 15 Norte 0 -- -- 90
2020-08-23 20:00:00 18.2 13 Norte 23 Norte 0 -- -- 88
2020-08-23 19:00:00 18.9 19 Norte 26 Norte 0 -- -- 89
2020-08-23 18:00:00 19.3 19 Norte 28 Norte 0 -- -- 89
2020-08-23 17:00:00 19.4 19 Norte 29 Norte 0 -- -- 90
2020-08-23 16:00:00 19.5 21 Norte 26 Norte 0 -- -- 89
2020-08-23 15:00:00 20.4 20 Norte 26 Norte 0 -- -- 86
2020-08-23 14:00:00 20.7 17 Norte 23 Norte 0 -- -- 86
2020-08-23 13:00:00 19.7 12 Norte 18 Norte 0 -- -- 88
2020-08-23 12:00:00 19 12 Norte 17 Norte 0 -- -- 88
2020-08-23 11:00:00 17.7 8 Norte 12 Norte 0 -- -- 94
2020-08-23 10:00:00 15.6 4 Sur 5 Sur 0 -- -- 98
2020-08-23 09:00:00 13.3 5 Sur 8 Sur 0 -- -- 99
2020-08-23 08:00:00 12.9 6 Sur 8 Sur 0 -- -- 100
2020-08-23 07:00:00 12.4 5 Sur 8 Sur 0 -- -- 99
2020-08-23 06:00:00 12.7 5 Sur 9 Sur 0 -- -- 98
2020-08-23 05:00:00 12.9 4 Sur 6 Sudoeste 0 -- -- 98
2020-08-23 04:00:00 13.2 4 Sur 5 Sur 0 -- -- 98
2020-08-23 03:00:00 13.5 3 Sur 5 Sur 0 -- -- 98
2020-08-23 02:00:00 14.1 3 Sur 5 Sudoeste 0 -- -- 97
2020-08-23 01:00:00 14.6 4 Sur 4 Sur 0 -- -- 96
2020-08-23 00:00:00 14.9 3 Norte 5 Norte 0 -- -- 96
2020-08-22 23:00:00 14.7 3 Norte 6 Nordeste 0 -- -- 93
2020-08-22 22:00:00 15.3 3 Norte 8 Norte 0 -- -- 91
2020-08-22 21:00:00 16.3 6 Norte 18 Norte 0 -- -- 87
2020-08-22 20:00:00 17.9 18 Norte 30 Norte 0 -- -- 83
2020-08-22 19:00:00 19.4 24 Norte 32 Norte 0 -- -- 79
2020-08-22 18:00:00 19.9 24 Norte 32 Norte 0 -- -- 75
2020-08-22 17:00:00 20.6 23 Norte 29 Norte 0 -- -- 79
2020-08-22 16:00:00 21.5 21 Norte 28 Norte 0 -- -- 73
2020-08-22 15:00:00 22.9 10 Sur 22 Sur 0 -- -- 53
2020-08-22 14:00:00 21.8 9 Sur 25 Sur 0 -- -- 56
2020-08-22 13:00:00 21.1 12 Sur 22 Sur 0 -- -- 61
2020-08-22 12:00:00 19.9 11 Sur 18 Sur 0 -- -- 69
2020-08-22 11:00:00 18 13 Sur 18 Sur 0 -- -- 79
2020-08-22 10:00:00 15.3 12 Sur 14 Sur 0 -- -- 92
2020-08-22 09:00:00 13 10 Sur 16 Sur 0 -- -- 95
2020-08-22 08:00:00 12.8 7 Sur 22 Sur 0 -- -- 92
2020-08-22 07:00:00 14.2 14 Sur 24 Sur 0 -- -- 90
2020-08-22 06:00:00 14.3 12 Sur 28 Sudeste 0 -- -- 88
2020-08-22 05:00:00 14.8 10 Sur 30 Sudeste 0 -- -- 87
2020-08-22 04:00:00 15.2 16 Sur 27 Sur 0 -- -- 88
2020-08-22 03:00:00 14.6 11 Sur 19 Sur 0 -- -- 92
2020-08-22 02:00:00 14.3 7 Sur 15 Sur 0 -- -- 91
2020-08-22 01:00:00 15.3 3 Sudoeste 17 Sur 0 -- -- 87
2020-08-22 00:00:00 16.2 6 Sur 17 Sur 0 -- -- 84
2020-08-21 23:00:00 16.9 4 Sur 15 Sur 0 -- -- 83
2020-08-21 22:00:00 18.2 5 Sur 12 Sur 0 -- -- 82
2020-08-21 21:00:00 18.6 2 Norte 9 Sur 0 -- -- 85
2020-08-21 20:00:00 20.5 6 Sudoeste 26 Sur 0 -- -- 74
2020-08-21 19:00:00 21 15 Sur 29 Sur 0 -- -- 73
2020-08-21 18:00:00 21.1 16 Sur 27 Sur 0 -- -- 76
2020-08-21 17:00:00 20.3 20 Sur 42 Sur 0 -- -- 76
2020-08-21 16:00:00 20.2 24 Sur 38 Sur 0 -- -- 79
2020-08-21 15:00:00 18.1 22 Sur 39 Sur 0.4 -- -- 95
2020-08-21 14:00:00 17.9 17 Sur 26 Sur 0 -- -- 89
2020-08-21 13:00:00 17.1 18 Sur 33 Sur 0 -- -- 90
2020-08-21 12:00:00 18.5 16 Sur 33 Sur 0 -- -- 82
2020-08-21 11:00:00 17.4 24 Sur 42 Sur 0 -- -- 80
2020-08-21 10:00:00 18.8 19 Sur 40 Sur 0 -- -- 72
2020-08-21 09:00:00 17.5 20 Sur 44 Sur 0 -- -- 75
2020-08-21 08:00:00 17.1 28 Sur 57 Sur 0 -- -- 73
2020-08-21 07:00:00 16.9 30 Sur 50 Sur 0 -- -- 73
2020-08-21 06:00:00 16.5 24 Sur 48 Sur 0 -- -- 74
2020-08-21 05:00:00 16.6 27 Sur 54 Sur 0 -- -- 74
2020-08-21 04:00:00 16.7 26 Sur 49 Sur 0 -- -- 73
2020-08-21 03:00:00 16.9 27 Sur 50 Sur 0 -- -- 72
2020-08-21 02:00:00 17 25 Sur 46 Sur 0 -- -- 69
2020-08-21 01:00:00 17.3 24 Sur 48 Sur 0 -- -- 68
2020-08-21 00:00:00 17.5 25 Sur 52 Sur 0 -- -- 66